Time;durP1;ratioP1;P1;durP2;ratioP2;P2;SDS_P1;SDS_P2;PMS_P1;PMS_P2;Temp;Humidity;BMP_temperature;BMP_pressure;BME280_temperature;BME280_humidity;BME280_pressure;Samples;Min_cycle;Max_cycle;Signal;HPM_P1;HPM_P2
2023/09/27 00:01:02;;;;;;;3.57;3.27;;;;;;;14.74;71.82;99319.16;5089839;28;42763;-77
2023/09/27 00:03:30;;;;;;;4.67;3.27;;;;;;;14.50;71.54;99282.75;5090406;28;42278;-77
2023/09/27 00:05:58;;;;;;;4.00;2.97;;;;;;;14.54;71.93;99294.91;5090085;28;39060;-77
2023/09/27 00:08:26;;;;;;;5.50;3.20;;;;;;;14.68;71.81;99319.63;5073170;28;40872;-77
2023/09/27 00:10:53;;;;;;;3.87;3.27;;;;;;;14.61;71.46;99323.66;5073086;28;41602;-77
2023/09/27 00:13:22;;;;;;;3.10;2.80;;;;;;;14.52;71.24;99308.34;5073914;28;41486;-77
2023/09/27 00:15:50;;;;;;;3.87;3.13;;;;;;;14.55;71.40;99323.25;5091012;28;39126;-77
2023/09/27 00:18:18;;;;;;;3.67;3.13;;;;;;;14.46;71.12;99314.13;5074545;28;41544;-77
2023/09/27 00:20:46;;;;;;;3.50;3.20;;;;;;;14.50;71.03;99325.38;5091038;28;42782;-77
2023/09/27 00:23:13;;;;;;;4.57;4.17;;;;;;;14.48;73.03;99314.84;5073935;28;41409;-77
2023/09/27 00:25:41;;;;;;;4.90;4.40;;;;;;;14.47;75.47;99299.81;5073953;28;38909;-77
2023/09/27 00:28:09;;;;;;;4.70;4.30;;;;;;;14.44;75.13;99305.38;5090851;28;41187;-77
2023/09/27 00:30:38;;;;;;;5.77;4.73;;;;;;;14.44;76.19;99305.38;5073657;28;42877;-77
2023/09/27 00:33:05;;;;;;;5.27;4.60;;;;;;;14.41;76.09;99307.41;5074116;28;42117;-77
2023/09/27 00:35:33;;;;;;;5.33;4.30;;;;;;;14.20;75.75;99275.09;5073597;28;38907;-77
2023/09/27 00:38:02;;;;;;;6.27;4.50;;;;;;;14.19;75.22;99273.41;5073958;28;43163;-77
2023/09/27 00:40:31;;;;;;;6.10;4.33;;;;;;;14.35;76.38;99305.97;5073541;28;43405;-77
2023/09/27 00:42:58;;;;;;;5.00;4.10;;;;;;;14.36;75.69;99310.34;5072102;28;41201;-77
2023/09/27 00:45:26;;;;;;;6.27;3.67;;;;;;;14.37;75.43;99314.72;5072809;28;38814;-78
2023/09/27 00:47:57;;;;;;;4.00;3.60;;;;;;;14.25;75.06;99294.25;5072783;28;41039;-77
2023/09/27 00:50:25;;;;;;;4.87;3.77;;;;;;;14.34;74.99;99321.09;5089537;28;43720;-78
2023/09/27 00:52:53;;;;;;;4.13;3.60;;;;;;;14.27;75.04;99303.00;5072931;28;41099;-78
2023/09/27 00:55:21;;;;;;;4.27;3.87;;;;;;;14.24;75.14;99303.22;5090055;28;40125;-77
2023/09/27 00:57:51;;;;;;;4.77;4.10;;;;;;;14.29;74.94;99322.41;5089736;28;41651;-76
2023/09/27 01:00:20;;;;;;;7.00;4.10;;;;;;;14.28;74.55;99326.03;5089447;28;42747;-77
2023/09/27 01:02:48;;;;;;;6.33;4.00;;;;;;;14.26;74.59;99335.94;5072471;28;42170;-77
2023/09/27 01:05:18;;;;;;;5.13;4.40;;;;;;;14.24;74.47;99327.19;5072918;28;38796;-77
2023/09/27 01:07:47;;;;;;;5.10;3.60;;;;;;;14.21;74.10;99327.44;5089402;28;40954;-76
2023/09/27 01:10:15;;;;;;;6.17;4.10;;;;;;;14.18;74.15;99330.28;5089446;28;42949;-77
2023/09/27 01:12:43;;;;;;;3.77;3.30;;;;;;;14.14;73.77;99342.13;5089852;28;43000;-77
2023/09/27 01:15:11;;;;;;;3.83;3.43;;;;;;;14.10;73.73;99343.28;5077012;28;38911;-77
2023/09/27 01:17:55;;;;;;;4.07;3.67;;;;;;;14.06;73.86;99341.81;5076927;28;41378;-77
2023/09/27 01:20:28;;;;;;;3.30;2.93;;;;;;;13.92;73.75;99335.63;5076661;28;42804;-76
2023/09/27 01:22:59;;;;;;;4.23;3.60;;;;;;;13.95;73.87;99345.22;5077102;28;42300;-77
2023/09/27 01:25:31;;;;;;;3.67;3.13;;;;;;;13.93;74.07;99352.44;5093757;28;39641;-77
2023/09/27 01:27:59;;;;;;;4.20;3.43;;;;;;;13.84;73.73;99345.94;5090941;28;41922;-77
2023/09/27 01:30:32;;;;;;;3.20;2.90;;;;;;;13.86;73.74;99354.66;5094214;28;42187;-77
2023/09/27 01:33:02;;;;;;;3.50;3.17;;;;;;;13.61;73.50;99314.69;5090738;28;43163;-77
2023/09/27 01:35:30;;;;;;;3.47;2.83;;;;;;;13.81;73.39;99362.13;5076634;28;39014;-77
2023/09/27 01:37:58;;;;;;;3.07;2.83;;;;;;;13.71;73.66;99342.41;5093622;28;41786;-77
2023/09/27 01:40:30;;;;;;;3.93;3.40;;;;;;;13.77;73.80;99346.44;5076678;28;42172;-77
2023/09/27 01:42:58;;;;;;;3.70;3.33;;;;;;;13.51;73.84;99308.28;5091952;28;42873;-77
2023/09/27 01:45:26;;;;;;;3.77;3.17;;;;;;;13.76;74.07;99355.38;5076362;28;40169;-77
2023/09/27 01:47:54;;;;;;;3.20;2.90;;;;;;;13.63;73.84;99337.56;5058975;28;40895;-77
2023/09/27 01:50:23;;;;;;;3.90;3.03;;;;;;;13.74;73.85;99352.81;5074789;28;42910;-78
2023/09/27 01:52:51;;;;;;;3.97;3.23;;;;;;;13.74;75.45;99341.31;5075430;28;41789;-76
2023/09/27 01:55:20;;;;;;;5.07;4.57;;;;;;;13.74;76.92;99334.19;5092601;28;38964;-77
2023/09/27 01:57:48;;;;;;;5.80;4.40;;;;;;;13.68;76.70;99337.28;5075384;28;41068;-77
2023/09/27 02:00:17;;;;;;;5.33;4.23;;;;;;;13.77;75.97;99349.97;5092524;28;43559;-77
2023/09/27 02:02:46;;;;;;;3.60;3.30;;;;;;;13.69;76.03;99352.28;5075252;28;41430;-77
2023/09/27 02:05:14;;;;;;;4.27;3.87;;;;;;;13.54;75.56;99332.03;5092008;28;39836;-77
2023/09/27 02:07:41;;;;;;;4.90;3.67;;;;;;;13.74;75.51;99357.28;5075090;28;41716;-77
2023/09/27 02:10:10;;;;;;;4.30;3.37;;;;;;;13.71;75.55;99358.38;5075168;28;43249;-78
2023/09/27 02:12:40;;;;;;;3.50;3.20;;;;;;;13.69;75.38;99357.63;5075141;28;41962;-77
2023/09/27 02:15:10;;;;;;;3.40;3.10;;;;;;;13.57;75.14;99343.34;5076059;28;41380;-77
2023/09/27 02:17:38;;;;;;;3.37;3.00;;;;;;;13.63;74.88;99352.69;5093260;28;41842;-77
2023/09/27 02:20:09;;;;;;;3.23;2.70;;;;;;;13.63;74.87;99356.22;5092961;28;42483;-77
2023/09/27 02:22:40;;;;;;;3.17;2.57;;;;;;;13.61;74.78;99359.91;5075780;28;41738;-77
2023/09/27 02:25:11;;;;;;;2.90;2.70;;;;;;;13.59;74.74;99357.41;5092768;28;39130;-77
2023/09/27 02:27:41;;;;;;;3.43;3.13;;;;;;;13.46;74.71;99347.66;5092418;28;40933;-76
2023/09/27 02:30:11;;;;;;;3.40;3.10;;;;;;;13.54;74.78;99364.81;5092323;28;43721;-77
2023/09/27 02:32:40;;;;;;;4.40;3.13;;;;;;;13.52;74.69;99374.72;5092678;28;42237;-76
2023/09/27 02:35:09;;;;;;;4.13;3.27;;;;;;;13.42;74.97;99362.97;5075784;28;39505;-77
2023/09/27 02:37:37;;;;;;;4.13;3.27;;;;;;;13.47;76.06;99358.22;5092419;28;41206;-77
2023/09/27 02:40:11;;;;;;;6.10;4.77;;;;;;;13.30;77.58;99321.22;5075990;28;42714;-77
2023/09/27 02:42:41;;;;;;;5.73;4.07;;;;;;;13.42;77.88;99338.16;5073461;28;41007;-77
2023/09/27 02:45:11;;;;;;;4.20;3.80;;;;;;;13.39;78.65;99335.69;5092771;28;41184;-77
2023/09/27 02:47:40;;;;;;;4.67;4.10;;;;;;;13.38;78.38;99334.84;5074008;28;41711;-77
2023/09/27 02:50:10;;;;;;;5.47;4.50;;;;;;;13.35;79.20;99323.59;5074370;28;42133;-77
2023/09/27 02:52:39;;;;;;;5.13;4.43;;;;;;;13.37;78.62;99329.63;5074411;28;42536;-77
2023/09/27 02:55:09;;;;;;;3.80;3.50;;;;;;;13.33;78.19;99333.47;5074434;28;39108;-77
2023/09/27 02:57:42;;;;;;;4.20;3.80;;;;;;;13.35;77.71;99334.22;5090921;28;41726;-77
2023/09/27 03:00:11;;;;;;;3.53;3.23;;;;;;;13.27;77.13;99326.72;5088399;28;42875;-77
2023/09/27 03:02:39;;;;;;;5.93;3.90;;;;;;;13.29;76.83;99336.31;5091096;28;41979;-77
2023/09/27 03:05:07;;;;;;;3.97;3.50;;;;;;;13.27;76.95;99327.59;5091313;28;40151;-76
2023/09/27 03:07:35;;;;;;;3.40;3.10;;;;;;;13.25;76.56;99328.63;5074136;28;41641;-77
2023/09/27 03:10:04;;;;;;;4.30;3.90;;;;;;;13.21;76.02;99328.00;5074188;28;41837;-77
2023/09/27 03:12:32;;;;;;;4.03;3.10;;;;;;;13.19;75.99;99329.91;5091360;28;42311;-76
2023/09/27 03:15:03;;;;;;;3.77;2.70;;;;;;;13.16;76.09;99324.78;5075292;28;38943;-76
2023/09/27 03:17:30;;;;;;;3.80;3.27;;;;;;;13.11;76.04;99326.84;5074789;28;40691;-77
2023/09/27 03:19:58;;;;;;;3.43;3.13;;;;;;;13.08;75.89;99332.38;5091990;28;41537;-77
2023/09/27 03:22:26;;;;;;;3.23;2.67;;;;;;;13.05;75.64;99345.88;5091763;28;42336;-77
2023/09/27 07:24:45;;;;;;;11.60;8.37;;;;;;;13.81;100.00;99459.78;5116790;28;20589;-82
2023/09/27 07:27:13;;;;;;;9.20;7.70;;;;;;;14.41;100.00;99469.94;5111357;28;39280;-85
2023/09/27 07:29:40;;;;;;;9.40;8.13;;;;;;;14.96;100.00;99467.81;5100618;28;40993;-86
2023/09/27 07:32:10;;;;;;;9.90;7.57;;;;;;;15.36;97.84;99470.28;5111013;28;42885;-84
2023/09/27 07:34:37;;;;;;;7.90;6.53;;;;;;;15.74;94.38;99464.84;5092437;28;40851;-85
2023/09/27 07:37:05;;;;;;;9.67;7.77;;;;;;;16.15;91.67;99475.13;5091958;28;39030;-83
2023/09/27 07:39:33;;;;;;;9.23;7.17;;;;;;;16.51;89.51;99469.66;5109814;28;41855;-83
2023/09/27 07:42:03;;;;;;;10.40;7.23;;;;;;;16.78;87.20;99474.72;5090534;28;41956;-83
2023/09/27 07:44:32;;;;;;;9.47;7.13;;;;;;;17.01;85.42;99474.72;5089899;28;41418;-82
2023/09/27 07:47:02;;;;;;;10.03;7.83;;;;;;;17.15;83.65;99482.50;5107679;28;40863;-87
2023/09/27 07:49:30;;;;;;;9.30;7.17;;;;;;;17.26;82.25;99489.69;5107684;28;42102;-82
2023/09/27 07:51:57;;;;;;;10.10;8.23;;;;;;;17.35;81.31;99492.47;5108598;28;43223;-82
2023/09/27 07:54:25;;;;;;;8.00;7.03;;;;;;;17.47;80.97;99487.94;5107028;28;41007;-78
2023/09/27 07:56:52;;;;;;;10.77;8.10;;;;;;;17.57;80.15;99495.13;5108055;28;39932;-78
2023/09/27 07:59:22;;;;;;;8.13;7.33;;;;;;;17.66;79.48;99496.25;5090325;28;41973;-85
2023/09/27 08:01:50;;;;;;;9.33;7.77;;;;;;;17.72;76.87;99497.56;5107210;28;41812;-79
2023/09/27 08:04:19;;;;;;;10.33;8.03;;;;;;;17.73;77.17;99473.31;5108163;28;42134;-84
2023/09/27 08:06:47;;;;;;;9.10;6.60;;;;;;;17.77;77.07;99458.72;5089858;28;39166;-86
2023/09/27 08:09:17;;;;;;;9.60;6.97;;;;;;;18.09;76.83;99484.66;5094291;28;41115;-85
2023/09/27 08:11:44;;;;;;;10.93;7.93;;;;;;;18.14;76.06;99461.84;5090943;28;41744;-80
2023/09/27 08:14:13;;;;;;;10.00;8.00;;;;;;;18.41;75.44;99485.50;5091301;28;40935;-86
2023/09/27 08:16:42;;;;;;;8.87;7.47;;;;;;;18.62;75.31;99475.63;5090508;28;38880;-81
2023/09/27 08:19:10;;;;;;;11.30;8.93;;;;;;;18.81;73.67;99472.22;5107922;28;41183;-78
2023/09/27 08:21:38;;;;;;;10.10;8.73;;;;;;;18.95;73.28;99461.13;5107765;28;43716;-78
2023/09/27 08:24:06;;;;;;;11.30;9.33;;;;;;;19.23;72.39;99477.50;5090158;28;41200;-83
2023/09/27 08:26:34;;;;;;;13.33;8.77;;;;;;;19.46;71.21;99484.38;5107594;28;39942;-82
2023/09/27 08:29:02;;;;;;;12.27;10.13;;;;;;;19.57;69.76;99470.00;5090870;28;40759;-83
2023/09/27 08:31:32;;;;;;;12.87;9.33;;;;;;;19.65;68.51;99462.13;5090532;28;41656;-85
2023/09/27 08:34:01;;;;;;;12.23;9.53;;;;;;;19.87;67.71;99461.00;5089483;28;42117;-86
2023/09/27 08:36:28;;;;;;;10.77;9.50;;;;;;;20.12;67.27;99459.63;5076578;28;38932;-81
2023/09/27 08:38:56;;;;;;;10.70;8.83;;;;;;;20.37;66.92;99476.06;5094074;28;42553;-87
2023/09/27 08:41:24;;;;;;;10.13;9.03;;;;;;;20.46;65.85;99476.19;5093084;28;42715;-85
2023/09/27 08:43:53;;;;;;;13.60;9.67;;;;;;;20.44;64.82;99466.41;5075802;28;41590;-84
2023/09/27 08:46:23;;;;;;;11.63;9.70;;;;;;;20.73;64.71;99476.28;5075401;28;40028;-84
2023/09/27 08:48:53;;;;;;;10.60;9.30;;;;;;;21.25;63.88;99477.56;5092183;28;41827;-85
2023/09/27 08:51:23;;;;;;;11.07;8.47;;;;;;;21.74;63.13;99481.69;5091861;28;41938;-85
2023/09/27 08:53:50;;;;;;;10.73;9.07;;;;;;;22.38;61.33;99453.66;5092616;28;42320;-85
2023/09/27 08:56:20;;;;;;;10.70;9.57;;;;;;;23.32;58.29;99490.78;5092269;28;38954;-85
2023/09/27 08:58:49;;;;;;;11.33;10.13;;;;;;;23.71;55.14;99494.72;5091936;28;41834;-86
2023/09/27 09:01:17;;;;;;;11.50;9.60;;;;;;;24.07;54.28;99499.88;5090446;28;43541;-79
2023/09/27 09:03:46;;;;;;;10.70;9.60;;;;;;;24.48;53.31;99498.91;5091768;28;42025;-83
2023/09/27 09:06:15;;;;;;;10.93;8.63;;;;;;;24.42;52.91;99483.34;5091798;28;39961;-84
2023/09/27 09:08:44;;;;;;;10.93;9.80;;;;;;;24.19;53.36;99482.28;5091629;28;42237;-82
2023/09/27 09:11:13;;;;;;;13.10;11.70;;;;;;;24.41;53.48;99478.97;5075174;28;41834;-86
2023/09/27 09:13:56;;;;;;;10.57;9.37;;;;;;;24.90;52.77;99476.22;5093061;28;43000;-84
2023/09/27 09:16:24;;;;;;;9.40;8.47;;;;;;;24.73;51.17;99466.44;5076296;28;40423;-83
2023/09/27 09:18:54;;;;;;;9.20;8.27;;;;;;;24.38;52.68;99465.75;5093037;28;41108;-86
2023/09/27 09:21:22;;;;;;;8.80;7.93;;;;;;;24.27;53.67;99447.13;5092956;28;44609;-89
2023/09/27 09:23:51;;;;;;;8.20;7.40;;;;;;;24.35;53.30;99466.09;5092382;28;41518;-87
2023/09/27 09:26:28;;;;;;;10.00;8.73;;;;;;;24.49;53.02;99468.13;5093224;28;39855;-82
2023/09/27 09:28:59;;;;;;;11.73;10.47;;;;;;;24.44;52.89;99454.25;5090183;28;41667;-88
2023/09/27 09:31:29;;;;;;;9.63;7.83;;;;;;;24.50;53.25;99466.25;5075948;28;43311;-83
2023/09/27 09:34:04;;;;;;;9.67;8.53;;;;;;;24.55;53.53;99451.19;5075739;28;41322;-87
2023/09/27 09:36:32;;;;;;;10.73;9.53;;;;;;;24.56;52.81;99442.06;5075890;28;40041;-87
2023/09/27 09:39:13;;;;;;;10.57;9.33;;;;;;;24.65;52.52;99449.16;5093977;28;41749;-83
2023/09/27 09:41:45;;;;;;;8.10;7.30;;;;;;;24.65;53.19;99432.91;5092379;28;41741;-84
2023/09/27 09:44:24;;;;;;;10.87;9.77;;;;;;;24.75;53.96;99424.56;5092153;28;42170;-87
2023/09/27 09:46:53;;;;;;;9.80;8.70;;;;;;;24.97;54.21;99417.63;5088087;28;39897;-86
2023/09/27 09:49:21;;;;;;;9.70;7.97;;;;;;;25.17;53.06;99413.50;5091854;28;41042;-84
2023/09/27 09:51:50;;;;;;;8.50;7.33;;;;;;;25.30;52.67;99405.66;5091631;28;41814;-83
2023/09/27 09:54:28;;;;;;;8.23;7.30;;;;;;;25.40;53.23;99392.72;5092696;28;42184;-83
2023/09/27 09:56:57;;;;;;;9.93;7.40;;;;;;;25.62;53.02;99395.66;5074665;28;38952;-87
2023/09/27 09:59:28;;;;;;;10.17;9.17;;;;;;;26.02;51.63;99398.09;5091518;28;41008;-83
2023/09/27 10:01:59;;;;;;;9.07;7.73;;;;;;;26.51;49.92;99424.88;5088579;28;42931;-83
2023/09/27 10:04:28;;;;;;;9.90;8.23;;;;;;;26.92;49.19;99417.16;5074708;28;42312;-86
2023/09/27 10:06:58;;;;;;;9.07;8.17;;;;;;;27.40;49.91;99409.47;5074605;28;39918;-84
2023/09/27 10:09:29;;;;;;;9.27;8.17;;;;;;;27.54;48.57;99390.41;5091626;28;40754;-84
2023/09/27 10:11:57;;;;;;;9.63;8.53;;;;;;;27.95;48.75;99403.41;5074448;28;43012;-87
2023/09/27 10:14:25;;;;;;;8.70;7.80;;;;;;;28.37;47.14;99418.94;5093157;28;42456;-85
2023/09/27 10:16:52;;;;;;;9.47;7.57;;;;;;;29.31;45.98;99424.84;5093438;28;40097;-82
2023/09/27 10:19:28;;;;;;;9.13;8.10;;;;;;;30.11;44.07;99421.41;5093125;28;42434;-86
2023/09/27 10:22:05;;;;;;;8.90;8.00;;;;;;;31.66;41.43;99432.59;5092274;28;42574;-86
2023/09/27 10:24:36;;;;;;;7.77;6.97;;;;;;;33.35;38.07;99440.00;5092855;28;42231;-84
2023/09/27 10:27:04;;;;;;;7.13;6.40;;;;;;;34.67;35.71;99439.00;5088814;28;40865;-89
2023/09/27 10:29:55;;;;;;;7.03;6.40;;;;;;;35.84;33.62;99433.41;5092497;28;40717;-88
2023/09/27 10:32:23;;;;;;;7.13;6.53;;;;;;;36.25;32.61;99430.34;5092432;28;43083;-84
2023/09/27 10:34:52;;;;;;;7.37;6.77;;;;;;;36.85;32.13;99417.84;5092722;28;42968;-86
2023/09/27 10:37:58;;;;;;;8.07;6.45;;;;;;;38.00;31.00;99423.25;5076196;28;39443;-84
2023/09/27 10:40:27;;;;;;;6.18;5.65;;;;;;;38.04;30.28;99420.81;5084720;28;41999;-81
2023/09/27 10:42:56;;;;;;;7.38;6.65;;;;;;;38.43;30.00;99407.66;5097202;28;43193;-87
2023/09/27 10:45:24;;;;;;;7.40;6.70;;;;;;;38.95;29.54;99405.00;5091489;28;43297;-86
2023/09/27 10:47:54;;;;;;;4.95;4.55;;;;;;;39.82;28.52;99415.44;5092698;28;40056;-87
2023/09/27 10:50:29;;;;;;;4.82;4.35;;;;;;;40.43;27.65;99410.03;5075211;28;41613;-83
2023/09/27 10:52:59;;;;;;;4.05;3.65;;;;;;;40.71;27.08;99391.16;5074438;28;41999;-86
2023/09/27 10:55:38;;;;;;;4.65;4.15;;;;;;;40.63;27.18;99398.09;5074176;28;41152;-83
2023/09/27 10:58:06;;;;;;;3.47;3.20;;;;;;;40.54;26.78;99366.44;5074382;28;39101;-85
2023/09/27 11:00:33;;;;;;;4.72;4.25;;;;;;;40.73;26.30;99409.22;5073316;28;40423;-85
2023/09/27 11:03:01;;;;;;;4.63;4.03;;;;;;;40.42;27.02;99402.00;5090336;28;42895;-86
2023/09/27 11:05:28;;;;;;;4.65;3.88;;;;;;;41.27;25.83;99397.44;5090069;28;42070;-83
2023/09/27 11:07:56;;;;;;;3.33;2.92;;;;;;;42.73;24.71;99400.44;5090208;28;40163;-90
2023/09/27 11:10:43;;;;;;;3.50;3.20;;;;;;;44.28;23.44;99411.09;5073398;28;41088;-86
2023/09/27 11:13:12;;;;;;;3.70;3.40;;;;;;;45.29;21.35;99422.50;5091421;28;42194;-87
2023/09/27 11:15:41;;;;;;;3.67;3.33;;;;;;;45.84;20.45;99417.69;5073991;28;42011;-81
2023/09/27 11:18:09;;;;;;;3.80;3.50;;;;;;;46.06;20.28;99406.56;5092303;28;40164;-85
2023/09/27 11:20:38;;;;;;;3.42;3.08;;;;;;;47.19;19.78;99413.78;5073866;28;40746;-85
2023/09/27 11:23:05;;;;;;;3.65;3.35;;;;;;;48.05;18.95;99422.44;5090238;28;41899;-84
2023/09/27 11:25:36;;;;;;;2.67;2.47;;;;;;;48.29;19.29;99407.09;5073967;28;41003;-84
2023/09/27 11:28:05;;;;;;;3.88;2.90;;;;;;;46.03;20.04;99397.94;5091242;28;40032;-84
2023/09/27 11:30:34;;;;;;;3.38;3.08;;;;;;;43.50;22.37;99383.75;5072878;28;42266;-84
2023/09/27 11:33:05;;;;;;;3.13;2.92;;;;;;;41.69;23.93;99371.13;5074231;28;41927;-84
2023/09/27 11:35:33;;;;;;;3.28;3.00;;;;;;;40.43;24.86;99365.59;5090430;28;41045;-83
2023/09/27 11:38:11;;;;;;;3.70;3.40;;;;;;;40.57;25.74;99340.88;5073793;28;39943;-82
2023/09/27 11:40:43;;;;;;;4.82;3.60;;;;;;;40.14;26.31;99354.22;5089516;28;41231;-83
2023/09/27 11:43:12;;;;;;;4.72;4.28;;;;;;;40.71;26.03;99344.78;5088453;28;41726;-84
2023/09/27 11:45:44;;;;;;;5.18;3.65;;;;;;;39.78;26.10;99338.59;5089127;28;43179;-84
2023/09/27 11:48:12;;;;;;;3.70;3.40;;;;;;;38.39;27.78;99332.59;5088163;28;40907;-87
2023/09/27 11:50:40;;;;;;;3.90;3.40;;;;;;;37.30;28.47;99319.06;5072497;28;40965;-87
2023/09/27 11:53:23;;;;;;;5.25;3.70;;;;;;;36.55;29.64;99313.31;5072526;28;42022;-86
2023/09/27 11:55:53;;;;;;;4.37;4.07;;;;;;;36.08;30.13;99310.06;5072791;28;41369;-84
2023/09/27 11:58:21;;;;;;;3.88;3.53;;;;;;;37.07;29.77;99296.38;5072680;28;39278;-84
2023/09/27 12:00:48;;;;;;;4.00;3.60;;;;;;;37.23;29.59;99299.06;5072065;28;41827;-81
2023/09/27 12:03:16;;;;;;;7.00;4.85;;;;;;;37.20;29.82;99307.91;5072316;28;42962;-84
2023/09/27 12:05:44;;;;;;;3.67;3.40;;;;;;;37.21;29.34;99306.81;5089141;28;41298;-84
2023/09/27 12:08:12;;;;;;;3.15;2.95;;;;;;;37.12;29.27;99291.72;5089130;28;40301;-82
2023/09/27 12:10:39;;;;;;;4.20;3.80;;;;;;;37.18;29.97;99293.50;5091744;28;42500;-85
2023/09/27 12:13:43;;;;;;;5.60;3.88;;;;;;;38.13;28.56;99277.34;5094879;28;42935;-86
2023/09/27 12:16:12;;;;;;;4.80;4.00;;;;;;;39.90;26.58;99308.69;5077130;28;41452;-86
2023/09/27 12:18:39;;;;;;;4.80;3.60;;;;;;;40.63;26.71;99306.44;5077104;28;39004;-91
2023/09/27 12:21:07;;;;;;;4.05;3.45;;;;;;;40.84;25.25;99283.06;5076684;28;41393;-84
2023/09/27 12:23:36;;;;;;;3.55;3.25;;;;;;;41.64;25.09;99304.41;5096082;27;42836;-86
2023/09/27 12:26:03;;;;;;;3.50;3.03;;;;;;;41.92;24.65;99273.00;5117552;27;42199;-82
2023/09/27 12:28:50;;;;;;;3.22;3.03;;;;;;;42.18;23.64;99279.22;5117171;27;39265;-89
2023/09/27 12:31:17;;;;;;;4.75;3.80;;;;;;;41.45;24.01;99277.22;5117290;27;42724;-87
2023/09/27 12:33:45;;;;;;;4.13;3.75;;;;;;;40.53;25.09;99253.69;5116257;27;42266;-81
2023/09/27 12:36:17;;;;;;;3.53;3.20;;;;;;;39.70;25.83;99267.00;5115437;27;42647;-85
2023/09/27 12:38:50;;;;;;;3.78;3.38;;;;;;;39.33;27.01;99265.25;5116215;27;39780;-84
2023/09/27 12:41:24;;;;;;;3.47;3.25;;;;;;;39.29;27.00;99261.41;5115630;27;42175;-86
2023/09/27 12:44:08;;;;;;;4.22;3.78;;;;;;;38.78;27.93;99258.41;5115642;27;42296;-85
2023/09/27 12:46:37;;;;;;;4.20;3.80;;;;;;;38.26;28.11;99246.44;5117297;27;41948;-86
2023/09/27 12:49:08;;;;;;;3.83;3.40;;;;;;;38.57;28.19;99240.03;5115436;27;39093;-82
2023/09/27 12:51:40;;;;;;;4.22;3.83;;;;;;;38.74;27.82;99226.81;5132617;27;42372;-86
2023/09/27 12:54:15;;;;;;;3.92;3.50;;;;;;;38.27;28.37;99206.63;5116561;27;41883;-87
2023/09/27 12:56:45;;;;;;;3.83;3.47;;;;;;;37.93;28.72;99234.56;5115919;27;41195;-85
2023/09/27 12:59:29;;;;;;;4.78;3.72;;;;;;;37.77;28.66;99224.47;5116044;27;38748;-89
2023/09/27 13:01:59;;;;;;;3.58;3.28;;;;;;;39.00;28.27;99235.25;5115637;27;40726;-89
2023/09/27 13:04:26;;;;;;;3.28;2.97;;;;;;;39.92;26.92;99214.94;5116145;27;41675;-93
2023/09/27 13:07:04;;;;;;;3.80;3.38;;;;;;;39.46;27.00;99227.91;5115868;27;41238;-89
2023/09/27 13:09:31;;;;;;;3.95;3.05;;;;;;;38.38;27.44;99233.25;5115224;27;40226;-86
2023/09/27 13:11:59;;;;;;;3.47;3.17;;;;;;;37.53;28.22;99223.13;5115938;27;42095;-87
2023/09/27 13:14:26;;;;;;;3.70;3.00;;;;;;;36.79;29.34;99220.91;5116580;27;42986;-85
2023/09/27 13:17:03;;;;;;;3.70;3.40;;;;;;;35.76;30.58;99161.75;5116461;27;41313;-82
2023/09/27 13:19:52;;;;;;;3.30;2.90;;;;;;;35.23;31.18;99201.59;5116916;27;39355;-86
2023/09/27 13:22:21;;;;;;;3.20;2.93;;;;;;;34.78;31.92;99211.69;5099350;27;41824;-85
2023/09/27 13:25:02;;;;;;;3.30;3.00;;;;;;;34.32;32.68;99188.69;5116206;27;42189;-82
2023/09/27 13:27:30;;;;;;;3.53;2.63;;;;;;;33.87;33.26;99175.53;5116635;27;42113;-82
2023/09/27 13:29:58;;;;;;;3.23;2.93;;;;;;;33.64;34.12;99169.97;5116074;27;39796;-82
2023/09/27 13:32:27;;;;;;;3.97;2.60;;;;;;;33.32;34.39;99152.16;5135134;27;41781;-82
2023/09/27 13:34:54;;;;;;;3.47;3.17;;;;;;;33.21;34.86;99172.13;5115726;27;41653;-83
2023/09/27 13:37:22;;;;;;;3.93;3.20;;;;;;;32.95;35.46;99144.00;5133777;27;42297;-83
2023/09/27 13:39:49;;;;;;;3.47;3.07;;;;;;;32.79;34.68;99151.00;5115853;27;39144;-83
2023/09/27 13:42:17;;;;;;;4.10;3.80;;;;;;;32.63;34.55;99150.78;5131947;27;41790;-86
2023/09/27 13:44:46;;;;;;;3.13;2.93;;;;;;;32.51;35.18;99125.19;5131974;27;41847;-83
2023/09/27 13:47:14;;;;;;;3.70;3.40;;;;;;;32.89;35.36;99131.22;5114993;27;41284;-87
2023/09/27 13:49:44;;;;;;;3.83;3.50;;;;;;;33.22;34.63;99110.69;5125978;27;38991;-88
2023/09/27 13:52:12;;;;;;;4.20;3.27;;;;;;;34.05;33.49;99138.84;5135695;27;41311;-82
2023/09/27 13:54:39;;;;;;;4.43;3.40;;;;;;;34.53;32.73;99152.28;5137506;27;43710;-85
2023/09/27 13:57:07;;;;;;;3.40;3.13;;;;;;;34.41;31.85;99132.22;5115108;27;41464;-82
2023/09/27 13:59:38;;;;;;;4.87;3.30;;;;;;;34.10;32.71;99124.38;5131594;27;38831;-82
2023/09/27 14:02:06;;;;;;;3.47;3.17;;;;;;;33.89;33.41;99129.41;5115031;27;40812;-82
2023/09/27 14:04:34;;;;;;;4.57;3.97;;;;;;;33.60;33.51;99069.06;5133004;27;42669;-86
2023/09/27 14:07:03;;;;;;;3.43;3.17;;;;;;;34.29;33.42;99134.16;5132120;27;41656;-88
2023/09/27 14:09:31;;;;;;;3.50;3.20;;;;;;;34.74;32.92;99125.19;5132321;27;38874;-86
2023/09/27 14:11:59;;;;;;;5.57;3.13;;;;;;;35.05;31.34;99124.69;5131918;27;41624;-83
2023/09/27 14:14:34;;;;;;;3.33;3.03;;;;;;;35.38;31.19;99112.06;5115913;27;43155;-85
2023/09/27 14:17:06;;;;;;;4.57;2.50;;;;;;;35.70;30.87;99117.81;5115497;27;43682;-86
2023/09/27 14:19:38;;;;;;;3.67;3.35;;;;;;;35.80;nan;99118.81;5115769;27;39113;-93
2023/09/27 14:22:07;;;;;;;5.38;3.95;;;;;;;35.73;30.62;99112.63;5115506;27;40876;-82
2023/09/27 14:24:35;;;;;;;3.50;3.30;;;;;;;35.61;30.46;99114.63;5113882;27;44298;-83
2023/09/27 14:27:04;;;;;;;3.47;3.17;;;;;;;35.45;30.57;99107.22;5114602;27;41130;-81
2023/09/27 14:29:34;;;;;;;3.50;3.20;;;;;;;35.06;31.05;99089.72;5132137;27;40431;-82
2023/09/27 14:32:04;;;;;;;5.70;3.07;;;;;;;35.01;31.38;99103.41;5114100;27;40851;-83
2023/09/27 14:34:33;;;;;;;3.97;3.30;;;;;;;34.86;31.70;99101.22;5114636;27;42895;-84
2023/09/27 14:37:01;;;;;;;3.53;3.23;;;;;;;34.65;31.89;99085.38;5131363;27;41283;-87
2023/09/27 14:39:32;;;;;;;3.43;3.10;;;;;;;34.45;32.20;99086.66;5131446;27;40203;-85
2023/09/27 14:42:00;;;;;;;3.97;3.20;;;;;;;34.12;32.24;99067.25;5114102;27;41584;-85
2023/09/27 14:44:28;;;;;;;3.53;3.10;;;;;;;33.78;33.01;99077.19;5113501;27;42524;-84
2023/09/27 14:46:55;;;;;;;6.17;3.70;;;;;;;33.18;33.41;99075.47;5113928;27;41211;-83
2023/09/27 14:49:23;;;;;;;3.93;3.50;;;;;;;32.59;34.41;99065.38;5114358;27;38919;-84
2023/09/27 14:51:52;;;;;;;3.47;2.83;;;;;;;32.30;34.89;99057.97;5113939;27;40507;-84
2023/09/27 14:55:17;;;;;;;3.67;3.20;;;;;;;31.66;35.35;99013.59;5114030;27;42288;-87
2023/09/27 14:57:58;;;;;;;3.20;2.97;;;;;;;31.42;35.74;99028.16;5113354;27;42706;-86
2023/09/27 15:00:33;;;;;;;4.13;3.03;;;;;;;31.20;36.43;99035.09;5097248;27;39156;-84
2023/09/27 15:03:16;;;;;;;4.23;3.57;;;;;;;30.98;37.03;99037.38;5113665;27;41453;-83
2023/09/27 15:05:46;;;;;;;3.53;3.23;;;;;;;30.62;37.54;99019.75;5114289;27;41796;-85
2023/09/27 15:08:14;;;;;;;3.63;3.33;;;;;;;30.52;37.45;99024.00;5113309;27;42417;-86
2023/09/27 15:13:24;;;;;;;4.70;3.07;;;;;;;29.89;38.46;98982.91;5131131;27;43037;-81
2023/09/27 15:15:52;;;;;;;5.87;3.50;;;;;;;30.03;38.52;99022.81;5131398;27;45281;-81
2023/09/27 15:18:20;;;;;;;4.23;3.67;;;;;;;29.84;39.26;99023.66;5130724;27;41614;-80
2023/09/27 15:20:48;;;;;;;6.63;3.80;;;;;;;29.70;39.60;99011.09;5131169;27;40182;-81
2023/09/27 15:23:16;;;;;;;5.13;3.03;;;;;;;29.46;39.42;99005.31;5131103;27;41000;-85
2023/09/27 15:26:10;;;;;;;3.17;2.97;;;;;;;29.19;39.72;98995.44;5131985;27;43767;-88
2023/09/27 15:28:39;;;;;;;3.63;3.07;;;;;;;29.12;40.24;99013.72;5114586;27;40959;-91
2023/09/27 15:31:09;;;;;;;3.57;3.27;;;;;;;29.04;40.30;99017.50;5114859;27;39081;-84
2023/09/27 15:33:38;;;;;;;3.67;3.13;;;;;;;28.83;40.63;98998.63;5114059;27;40971;-81
2023/09/27 15:36:07;;;;;;;4.17;2.80;;;;;;;28.70;40.74;99002.13;5114157;27;41860;-82
2023/09/27 15:38:34;;;;;;;4.40;3.40;;;;;;;28.66;41.12;99009.06;5113763;27;40919;-84
2023/09/27 15:41:04;;;;;;;3.50;3.20;;;;;;;28.55;41.31;99012.41;5112613;27;40398;-84
2023/09/27 15:43:32;;;;;;;5.37;3.20;;;;;;;28.34;41.80;98994.34;5130329;27;40950;-84
2023/09/27 15:46:04;;;;;;;3.47;3.17;;;;;;;28.22;41.55;98991.38;5116644;27;43089;-84
2023/09/27 15:48:35;;;;;;;5.73;3.57;;;;;;;28.18;41.98;99006.47;5117056;27;41780;-83